Latest Weather Observations for Marble Bar

IDW60801

Issued at 5:05 pm WST Saturday 23 August 2014 (issued every 30 minutes, with the page automatically refreshed every 10 minutes)

About weather observations | Map of weather stations | Latest weather observations for WA | Other Formats
Station Details ID: 004106 Name: MARBLE BAR Lat: -21.18 Lon: 119.75 Height: 182.3 m
Data from the previous 72 hours. | See also: Recent months at Marble Bar
Date/Time
WST
Temp
°C
App
Temp
°C
Dew
Point
Rel
Hum
%
Delta-T
°C
Wind Press
QNH
hPa
Press
MSL
hPa
Rain
since 9 am
mm
Dir
 
Spd
km/h
Gust
km/h
Spd
kts
Gust
kts
23/05:00pm 30.1 24.5 -6.2 9 15.7 ESE 15 20 8 11 1017.6 1017.0 0.0
23/04:30pm 30.6 25.3 -7.4 8 16.1 ESE 13 22 7 12 1017.5 1016.9 0.0
23/04:00pm 30.9 25.6 -7.1 8 16.3 E 13 28 7 15 1017.4 1016.8 0.0
23/03:30pm 31.1 26.6 -7.0 8 16.4 E 9 26 5 14 1017.6 1017.0 0.0
23/03:00pm 31.1 26.2 -7.0 8 16.4 ESE 11 19 6 10 1017.9 1017.2 0.0
23/02:30pm 31.1 24.7 -7.0 8 16.4 E 19 32 10 17 1018.2 1017.5 0.0
23/02:00pm 31.7 26.1 -6.6 8 16.6 E 15 26 8 14 1018.4 1017.7 0.0
23/01:30pm 31.3 24.7 -6.8 8 16.5 SE 20 32 11 17 1018.6 1017.9 0.0
23/01:00pm 31.7 25.3 -6.6 8 16.6 E 19 28 10 15 1019.0 1018.3 0.0
23/12:30pm 30.9 25.6 -7.1 8 16.3 ENE 13 28 7 15 1019.4 1018.7 0.0
23/12:00pm 30.9 25.8 -5.6 9 16.0 ENE 13 24 7 13 1019.8 1019.2 0.0
23/11:30am 29.8 25.7 -6.4 9 15.6 ENE 7 20 4 11 1020.3 1019.7 0.0
23/11:00am 28.9 23.7 -5.7 10 14.9 ENE 13 26 7 14 1020.7 1020.1 0.0
23/10:30am 28.4 22.5 -6.1 10 14.7 NE 17 26 9 14 1021.0 1020.4 0.0
23/10:00am 27.7 23.5 -4.3 12 14.0 NE 9 17 5 9 1021.1 1020.5 0.0
23/09:30am 26.5 22.0 -3.1 14 13.1 ENE 11 20 6 11 1021.4 1020.8 0.0
23/09:00am 25.2 20.3 -3.2 15 12.4 E 13 20 7 11 1021.3 1020.7 0.0
23/08:30am 23.6 21.4 1.3 23 10.5 WSW 2 4 1 2 1021.0 1020.4 0.0
23/08:00am 19.7 17.5 1.2 29 8.4 SSE 2 4 1 2 1020.6 1020.0 0.0
23/07:30am 16.7 14.6 2.0 37 6.6 SSE 2 4 1 2 1020.2 1019.6 0.0
23/07:00am 14.6 12.5 1.8 42 5.6 SSE 2 6 1 3 1019.8 1019.2 0.0
23/06:30am 11.5 9.0 1.7 51 4.2 S 4 6 2 3 1019.4 1018.7 0.0
23/06:00am 11.5 9.1 2.0 52 4.1 S 4 6 2 3 1019.2 1018.5 0.0
23/05:30am 11.9 9.9 2.1 51 4.3 S 2 4 1 2 1018.9 1018.2 0.0
23/05:00am 12.2 9.8 2.1 50 4.4 SSE 4 6 2 3 1018.5 1017.8 0.0
23/04:30am 12.8 10.7 1.5 46 4.9 S 2 4 1 2 1018.2 1017.5 0.0
23/04:00am 12.6 10.2 1.9 48 4.6 S 4 6 2 3 1018.1 1017.4 0.0
23/03:30am 11.9 10.3 2.4 52 4.2 CALM 0 2 0 1 1018.1 1017.4 0.0
23/03:00am 12.7 11.1 2.3 49 4.6 CALM 0 4 0 2 1018.2 1017.5 0.0
23/02:30am 13.4 11.0 2.0 46 5.0 S 4 4 2 2 1018.2 1017.5 0.0
23/02:00am 13.2 11.5 2.1 47 4.9 CALM 0 0 0 0 1018.3 1017.6 0.0
23/01:30am 13.1 11.1 2.4 48 4.7 SSE 2 4 1 2 1018.5 1017.8 0.0
23/01:00am 13.7 12.0 2.0 45 5.1 CALM 0 0 0 0 1018.6 1017.9 0.0
23/12:30am 14.9 12.8 1.4 40 5.9 SE 2 4 1 2 1018.7 1018.0 0.0
23/12:00am 15.2 12.7 1.4 39 6.1 SSE 4 6 2 3 1018.7 1018.0 0.0
 
Date/Time
WST
Temp
°C
App
Temp
°C
Dew
Point
Rel
Hum
%
Delta-T
°C
Wind Press
QNH
hPa
Press
MSL
hPa
Rain
since 9 am
mm
Dir
 
Spd
km/h
Gust
km/h
Spd
kts
Gust
kts
22/11:30pm 17.4 14.4 0.6 32 7.4 SE 6 9 3 5 1018.7 1018.0 0.0
22/11:00pm 15.0 12.6 2.2 42 5.7 SE 4 9 2 5 1018.8 1018.1 0.0
22/10:30pm 15.9 13.3 1.2 37 6.5 SSE 4 6 2 3 1018.8 1018.1 0.0
22/10:00pm 16.6 14.9 1.9 37 6.6 CALM 0 0 0 0 1018.7 1018.0 0.0
22/09:30pm 17.4 15.2 1.0 33 7.3 SE 2 7 1 4 1018.7 1018.0 0.0
22/09:00pm 18.5 16.6 0.6 30 8.0 CALM 0 4 0 2 1018.7 1018.0 0.0
22/08:30pm 18.8 17.0 0.9 30 8.0 CALM 0 0 0 0 1018.6 1017.9 0.0
22/08:00pm 20.9 18.4 -1.0 23 9.6 NNE 2 4 1 2 1018.3 1017.6 0.0
22/07:30pm 24.1 20.1 -2.4 17 11.7 NNE 9 11 5 6 1017.8 1017.1 0.0
22/07:00pm 22.5 19.2 -1.6 20 10.6 E 6 9 3 5 1017.0 1016.4 0.0
22/06:30pm 24.0 20.5 -2.5 17 11.6 E 6 7 3 4 1016.5 1015.9 0.0
22/06:00pm 26.9 23.3 -3.8 13 13.5 NE 6 7 3 4 1016.0 1015.4 0.0
22/05:30pm 28.9 25.2 -4.5 11 14.7 NE 6 9 3 5 1015.6 1015.0 0.0
22/05:00pm 30.4 26.1 -4.6 10 15.6 NNE 9 17 5 9 1015.3 1014.7 0.0
22/04:30pm 30.8 26.4 -5.7 9 16.0 ENE 9 19 5 10 1015.0 1014.4 0.0
22/04:00pm 31.3 26.2 -5.3 9 16.2 NE 13 22 7 12 1014.9 1014.2 0.0
22/03:30pm 31.6 27.3 -5.1 9 16.4 E 9 17 5 9 1014.7 1014.0 0.0
22/03:00pm 31.5 25.5 -6.7 8 16.6 ENE 17 30 9 16 1014.9 1014.2 0.0
22/02:30pm 31.4 26.3 -5.2 9 16.3 ENE 13 26 7 14 1015.1 1014.5 0.0
22/02:00pm 31.4 26.5 -6.8 8 16.5 ENE 11 20 6 11 1015.4 1014.8 0.0
22/01:30pm 30.7 24.6 -7.3 8 16.2 NE 17 30 9 16 1015.7 1015.1 0.0
22/01:00pm 31.0 25.1 -5.5 9 16.1 ENE 17 28 9 15 1016.1 1015.5 0.0
22/12:30pm 31.0 25.5 -5.5 9 16.1 ENE 15 24 8 13 1016.6 1016.0 0.0
22/12:00pm 30.6 24.3 -5.8 9 15.9 E 19 32 10 17 1017.0 1016.4 0.0
22/11:30am 29.9 24.2 -3.7 11 15.2 ENE 17 33 9 18 1017.4 1016.8 0.0
22/11:00am 29.1 24.4 -2.1 13 14.4 E 13 20 7 11 1018.0 1017.3 0.0
22/10:30am 28.6 23.3 -0.5 15 13.8 ESE 17 26 9 14 1018.4 1017.7 0.0
22/10:00am 27.7 23.7 0.5 17 13.0 ESE 11 17 6 9 1018.7 1018.0 0.0
22/09:30am 25.6 22.7 1.7 21 11.5 ENE 6 11 3 6 1018.9 1018.2 0.0
22/09:00am 24.1 22.4 1.7 23 10.6 CALM 0 0 0 0 1019.0 1018.3 0.0
22/08:30am 21.7 20.0 1.9 27 9.3 CALM 0 0 0 0 1018.9 1018.2 0.0
22/08:00am 18.4 16.8 2.7 35 7.3 CALM 0 0 0 0 1018.6 1017.9 0.0
22/07:30am 15.4 13.6 3.2 44 5.6 S 2 4 1 2 1018.3 1017.6 0.0
22/07:00am 12.4 11.0 3.6 55 4.0 CALM 0 2 0 1 1018.0 1017.3 0.0
22/06:30am 10.8 9.3 2.9 58 3.5 CALM 0 0 0 0 1017.6 1017.0 0.0
22/06:00am 12.1 10.1 2.3 51 4.3 SSE 2 4 1 2 1017.4 1016.8 0.0
22/05:30am 11.9 9.9 2.1 51 4.3 S 2 4 1 2 1017.0 1016.4 0.0
22/05:00am 12.3 10.2 1.9 49 4.5 S 2 4 1 2 1016.6 1016.0 0.0
22/04:30am 12.8 10.7 1.8 47 4.8 S 2 4 1 2 1016.3 1015.7 0.0
22/04:00am 13.0 10.9 2.0 47 4.8 SSW 2 4 1 2 1016.1 1015.5 0.0
22/03:30am 13.2 11.1 1.8 46 5.0 SW 2 4 1 2 1015.9 1015.3 0.0
22/03:00am 13.2 11.2 2.1 47 4.9 ENE 2 2 1 1 1015.9 1015.3 0.0
22/02:30am 14.8 12.6 1.3 40 5.9 S 2 4 1 2 1016.2 1015.6 0.0
22/02:00am 14.2 11.6 1.2 41 5.6 S 4 4 2 2 1016.4 1015.8 0.0
22/01:30am 13.9 12.1 1.5 43 5.4 CALM 0 0 0 0 1016.4 1015.8 0.0
22/01:00am 14.9 12.4 1.8 41 5.8 S 4 7 2 4 1016.6 1016.0 0.0
22/12:30am 15.7 13.1 0.7 36 6.5 S 4 6 2 3 1016.8 1016.2 0.0
22/12:00am 15.0 12.2 2.2 42 5.7 S 6 7 3 4 1017.0 1016.4 0.0
 
Date/Time
WST
Temp
°C
App
Temp
°C
Dew
Point
Rel
Hum
%
Delta-T
°C
Wind Press
QNH
hPa
Press
MSL
hPa
Rain
since 9 am
mm
Dir
 
Spd
km/h
Gust
km/h
Spd
kts
Gust
kts
21/11:30pm 15.5 13.6 2.7 42 5.8 SE 2 4 1 2 1017.0 1016.4 0.0
21/11:00pm 16.1 14.5 2.2 39 6.3 CALM 0 2 0 1 1017.2 1016.6 0.0
21/10:30pm 16.2 14.6 2.6 40 6.2 CALM 0 4 0 2 1017.2 1016.6 0.0
21/10:00pm 16.9 14.1 2.1 37 6.7 SE 6 7 3 4 1017.2 1016.6 0.0
21/09:30pm 18.3 16.4 0.4 30 7.9 CALM 0 0 0 0 1017.1 1016.5 0.0
21/09:00pm 20.5 17.8 0.4 26 9.1 N 4 7 2 4 1017.1 1016.5 0.0
21/08:30pm 20.8 18.0 -0.5 24 9.5 N 4 6 2 3 1016.9 1016.3 0.0
21/08:00pm 21.4 18.1 0.0 24 9.6 NNW 7 9 4 5 1016.6 1016.0 0.0
21/07:30pm 18.9 17.2 1.9 32 7.8 CALM 0 0 0 0 1016.2 1015.6 0.0
21/07:00pm 20.5 18.7 0.9 27 8.9 CALM 0 2 0 1 1015.8 1015.2 0.0
21/06:30pm 21.9 19.3 1.0 25 9.7 N 4 4 2 2 1015.4 1014.8 0.0
21/06:00pm 25.1 22.0 -2.5 16 12.2 N 4 6 2 3 1015.1 1014.5 0.0
21/05:30pm 27.0 23.5 -2.7 14 13.3 N 6 7 3 4 1014.8 1014.1 0.0
21/05:00pm 28.4 24.2 -3.7 12 14.3 N 9 11 5 6 1014.7 1014.0 0.0
21/04:30pm 29.1 24.9 -4.3 11 14.8 N 9 17 5 9 1014.7 1014.0 0.0
21/04:00pm 29.9 26.1 -3.7 11 15.2 NNW 7 15 4 8 1014.6 1013.9 0.0
21/03:30pm 29.9 25.2 -5.0 10 15.4 N 11 19 6 10 1014.6 1013.9 0.0
21/03:00pm 29.2 24.5 -5.5 10 15.1 NNE 11 24 6 13 1014.5 1013.8 0.0
21/02:30pm 30.2 25.1 -4.8 10 15.5 NNE 13 26 7 14 1014.6 1013.9 0.0
21/02:00pm 29.6 25.6 -5.2 10 15.2 NW 7 15 4 8 1014.8 1014.1 0.0
21/01:30pm 30.0 25.3 -4.9 10 15.4 NNE 11 22 6 12 1015.0 1014.4 0.0
21/01:00pm 29.2 24.5 -5.5 10 15.1 NW 11 20 6 11 1015.4 1014.8 0.0
21/12:30pm 29.2 25.0 -4.3 11 14.9 N 9 20 5 11 1015.8 1015.2 0.0
21/12:00pm 28.4 23.7 -4.9 11 14.5 NW 11 19 6 10 1016.3 1015.7 0.0
21/11:30am 28.1 24.5 -3.9 12 14.2 N 6 7 3 4 1016.6 1016.0 0.0
21/11:00am 26.8 23.6 -3.9 13 13.4 ESE 4 9 2 5 1017.0 1016.4 0.0
21/10:30am 26.3 23.2 -2.4 15 12.9 SSW 4 6 2 3 1017.3 1016.7 0.0
21/10:00am 25.4 22.6 -0.6 18 12.0 SE 4 9 2 5 1017.6 1017.0 0.0
21/09:30am 24.3 22.4 0.6 21 11.1 CALM 0 4 0 2 1017.9 1017.2 0.0
21/09:00am 21.8 19.9 0.4 24 9.7 CALM 0 0 0 0 1017.9 1017.2 0.4
21/08:30am 19.7 17.7 0.2 27 8.7 CALM 0 0 0 0 1017.6 1017.0 0.4
21/08:00am 17.2 15.5 1.6 35 7.0 CALM 0 0 0 0 1017.3 1016.7 0.4
21/07:30am 14.1 12.0 2.0 44 5.3 S 2 4 1 2 1017.1 1016.5 0.4
21/07:00am 11.1 8.7 1.9 53 3.9 SSE 4 6 2 3 1016.8 1016.2 0.4
21/06:30am 9.1 6.9 0.8 56 3.4 SSE 2 6 1 3 1016.4 1015.8 0.4
21/06:00am 8.8 6.9 0.5 56 3.4 CALM 0 6 0 3 1016.2 1015.6 0.4
21/05:30am 9.5 7.6 0.7 54 3.6 CALM 0 0 0 0 1016.1 1015.5 0.4
21/05:00am 9.6 7.0 0.8 54 3.6 SE 4 7 2 4 1015.8 1015.2 0.4
21/04:30am 9.5 6.9 1.2 56 3.4 SE 4 6 2 3 1015.7 1015.1 0.4
21/04:00am 10.9 9.0 0.6 49 4.3 CALM 0 0 0 0 1015.7 1015.1 0.4
21/03:30am 12.3 9.3 0.7 45 4.9 N 6 15 3 8 1015.5 1014.9 0.4
21/03:00am 11.7 9.9 1.4 49 4.4 CALM 0 0 0 0 1015.3 1014.7 0.4
21/02:30am 13.0 10.8 1.0 44 5.1 SSE 2 4 1 2 1015.7 1015.1 0.4
21/02:00am 12.6 9.6 1.0 45 4.9 S 6 11 3 6 1015.9 1015.3 0.4
21/01:30am 12.7 10.0 0.5 43 5.1 SE 4 6 2 3 1016.2 1015.6 0.4
21/01:00am 12.7 9.5 -0.5 40 5.4 SSE 6 9 3 5 1016.5 1015.9 0.4
21/12:30am 15.2 11.4 -0.5 34 6.6 E 9 11 5 6 1016.6 1016.0 0.4
21/12:00am 14.0 11.7 0.6 40 5.7 S 2 4 1 2 1016.5 1015.9 0.4
 
Date/Time
WST
Temp
°C
App
Temp
°C
Dew
Point
Rel
Hum
%
Delta-T
°C
Wind Press
QNH
hPa
Press
MSL
hPa
Rain
since 9 am
mm
Dir
 
Spd
km/h
Gust
km/h
Spd
kts
Gust
kts
20/11:30pm 14.7 12.4 0.5 38 6.1 SSE 2 7 1 4 1016.7 1016.1 0.4
20/11:00pm 13.2 11.3 0.6 42 5.3 CALM 0 0 0 0 1016.7 1016.1 0.4
20/10:30pm 14.1 11.4 0.4 39 5.8 SSE 4 6 2 3 1016.8 1016.2 0.4
20/10:00pm 14.3 12.3 -0.2 37 6.1 CALM 0 0 0 0 1016.9 1016.3 0.4
20/09:30pm 15.8 13.9 0.4 35 6.7 CALM 0 0 0 0 1017.0 1016.4 0.4
20/09:00pm 16.2 14.1 -0.5 32 7.1 CALM 0 0 0 0 1016.9 1016.3 0.4
20/08:30pm 19.2 16.1 -2.4 23 9.1 NNW 4 6 2 3 1016.8 1016.2 0.4
20/08:00pm 21.5 17.0 -3.1 19 10.4 NNW 11 15 6 8 1016.4 1015.8 0.4
20/07:30pm 21.2 16.9 -2.0 21 10.0 N 11 15 6 8 1016.0 1015.4 0.4
20/07:00pm 19.5 17.5 0.0 27 8.6 CALM 0 0 0 0 1015.5 1014.9 0.4
20/06:30pm 21.7 19.4 -2.2 20 10.4 CALM 0 2 0 1 1015.1 1014.5 0.4
20/06:00pm 24.7 21.3 -5.5 13 12.6 N 4 6 2 3 1015.0 1014.4 0.4
20/05:30pm 27.3 23.2 -6.9 10 14.3 NW 7 11 4 6 1014.7 1014.0 0.4

Other Formats:

Comma delimited format used in spreadsheet applications
http://www.bom.gov.au/fwo/IDW60801/IDW60801.95317.axf

JavaScript Object Notation format (JSON) in row-major order
http://www.bom.gov.au/fwo/IDW60801/IDW60801.95317.json